^^

..:: Storico WU ::..




Lo storico viene creato da WUnderground con i dati che la stazione Meteomincio invia al loro server. L' aggiornamento viene fatto ogni 5 minuti circa, tuttavia possono esserci intervalli pi¨ ampi a causa di errori, interruzioni di servizio o problemi nell' invio tramite FTP.


Storico stazione MeteoMincio
Giorno Sommario per Marzo 13, 2022 Unità:  Metrico    Inglese   Entrambi
Giorno Settimana Mese Anno
  Max: Min: Media:
Temperatura: 11.6 °C -1.9 °C 5.5 °C
Dew Point: 1.9 °C -6.1 °C -1.5 °C
Umidità: 77% 47.8% 62%
Velocità vento: 14.3km/h 0km/h 5.4km/h
Raffica: 27.8km/h - -
Direzione- - East
Pressione: 1029.5 hPa 1025.7 hPa -
Precipitazioni: 0.0 mm    
 
 
Tabulato Dati per Marzo 13, 2022
Ora Temperatura Dew Point Pressione Direzione Velocità vento Raffica Umidità Intensità pioggia (oraria) Info solare Situazione
00:04 1.7 °C -5.9 °C 1028.0 hPa NE 3.8 km/h 6.4 km/h 57% 0.0 mm 0 W/m2
00:09 1.7 °C -5.9 °C 1028.1 hPa NE 3.8 km/h 6.4 km/h 57% 0.0 mm 0 W/m2
00:14 1.7 °C -5.9 °C 1028.1 hPa NE 3.6 km/h 6.4 km/h 57% 0.0 mm 0 W/m2
00:19 1.6 °C -5.8 °C 1028.1 hPa NE 3.6 km/h 6.4 km/h 57.8% 0.0 mm 0 W/m2
00:24 1.5 °C -5.9 °C 1028.1 hPa NE 2.9 km/h 5.6 km/h 58% 0.0 mm 0 W/m2
00:29 1.4 °C -6 °C 1028.1 hPa NE 3 km/h 5.6 km/h 58% 0.0 mm 0 W/m2
00:34 1.3 °C -5.9 °C 1028.1 hPa NE 3.2 km/h 5.6 km/h 58.6% 0.0 mm 0 W/m2
00:39 1.3 °C -5.9 °C 1028.0 hPa NE 3.4 km/h 5.6 km/h 59% 0.0 mm 0 W/m2
00:44 1.2 °C -5.9 °C 1028.0 hPa NE 3.4 km/h 5.6 km/h 59% 0.0 mm 0 W/m2
00:49 1.3 °C -5.9 °C 1028.1 hPa NE 3 km/h 5.6 km/h 59% 0.0 mm 0 W/m2
00:54 1.2 °C -5.9 °C 1028.1 hPa NE 3.1 km/h 5.6 km/h 59% 0.0 mm 0 W/m2
00:59 1.1 °C -6 °C 1028.1 hPa NE 3.5 km/h 5.6 km/h 59% 0.0 mm 0 W/m2
01:04 1.1 °C -6 °C 1028.1 hPa NE 3.2 km/h 5.6 km/h 59% 0.0 mm 0 W/m2
01:09 1.1 °C -6 °C 1028.1 hPa NE 3.6 km/h 6.4 km/h 59% 0.0 mm 0 W/m2
01:14 1.1 °C -6 °C 1028.1 hPa NE 4.2 km/h 6.4 km/h 59% 0.0 mm 0 W/m2
01:19 1.1 °C -6.1 °C 1028.1 hPa NE 3.6 km/h 5.6 km/h 59% 0.0 mm 0 W/m2
01:24 1.1 °C -6.1 °C 1028.1 hPa NE 3.6 km/h 5.6 km/h 59% 0.0 mm 0 W/m2
01:29 1 °C -6.1 °C 1028.1 hPa NE 4.4 km/h 6.4 km/h 59% 0.0 mm 0 W/m2
01:34 1.1 °C -6 °C 1028.1 hPa NE 4.4 km/h 6.4 km/h 59% 0.0 mm 0 W/m2
01:39 1.1 °C -6.1 °C 1028.1 hPa NE 4.8 km/h 6.4 km/h 59% 0.0 mm 0 W/m2
01:44 0.9 °C -6 °C 1028.0 hPa NE 4 km/h 6.4 km/h 59.6% 0.0 mm 0 W/m2
01:49 0.6 °C -5.9 °C 1028.0 hPa ENE 3 km/h 5.6 km/h 62.1% 0.0 mm 0 W/m2
01:54 0.3 °C -5.8 °C 1027.9 hPa ENE 2.8 km/h 5.6 km/h 63.6% 0.0 mm 0 W/m2
01:59 0.1 °C -5.7 °C 1027.9 hPa ENE 3.8 km/h 5.6 km/h 64.8% 0.0 mm 0 W/m2
02:04 0.1 °C -5.7 °C 1027.9 hPa ENE 3 km/h 5.6 km/h 65% 0.0 mm 0 W/m2
02:09 0.1 °C -5.7 °C 1027.9 hPa ENE 2.7 km/h 5.6 km/h 65% 0.0 mm 0 W/m2
02:14 0.1 °C -5.7 °C 1027.9 hPa ENE 2.7 km/h 5.6 km/h 65% 0.0 mm 0 W/m2
02:19 0.1 °C -5.7 °C 1027.9 hPa ENE 3.8 km/h 5.6 km/h 65% 0.0 mm 0 W/m2
02:24 0.1 °C -5.7 °C 1027.9 hPa ENE 3.8 km/h 5.6 km/h 65% 0.0 mm 0 W/m2
02:29 0 °C -5.7 °C 1027.8 hPa ENE 2.7 km/h 5.6 km/h 65.8% 0.0 mm 0 W/m2
02:34 -0.1 °C -5.7 °C 1027.8 hPa ENE 2.3 km/h 4.8 km/h 66% 0.0 mm 0 W/m2
02:39 -0.1 °C -5.8 °C 1027.8 hPa ENE 3.2 km/h 5.6 km/h 65% 0.0 mm 0 W/m2
02:44 0 °C -5.8 °C 1027.8 hPa ENE 2.5 km/h 4.8 km/h 65.2% 0.0 mm 0 W/m2
02:49 -0.1 °C -5.8 °C 1027.7 hPa ENE 3.3 km/h 5.6 km/h 66% 0.0 mm 0 W/m2
02:54 -0.3 °C -5.7 °C 1027.7 hPa ENE 3.5 km/h 5.6 km/h 67.1% 0.0 mm 0 W/m2
02:59 -0.3 °C -5.5 °C 1027.6 hPa ENE 2.3 km/h 5.6 km/h 68% 0.0 mm 0 W/m2
03:04 -0.4 °C -5.5 °C 1027.6 hPa ENE 1.7 km/h 4.8 km/h 67.9% 0.0 mm 0 W/m2
03:09 -0.4 °C -5.5 °C 1027.6 hPa ENE 2 km/h 3.7 km/h 68.5% 0.0 mm 0 W/m2
03:14 -0.5 °C -5.5 °C 1027.5 hPa ENE 2.3 km/h 3.7 km/h 69% 0.0 mm 0 W/m2
03:19 -0.6 °C -5.6 °C 1027.5 hPa ENE 2.1 km/h 3.7 km/h 69% 0.0 mm 0 W/m2
03:24 -0.6 °C -5.5 °C 1027.5 hPa ENE 2.9 km/h 5.6 km/h 69.6% 0.0 mm 0 W/m2
03:29 -0.7 °C -5.5 °C 1027.4 hPa ENE 3 km/h 5.6 km/h 70% 0.0 mm 0 W/m2
03:34 -0.6 °C -5.4 °C 1027.4 hPa ENE 2.4 km/h 5.6 km/h 70.5% 0.0 mm 0 W/m2
03:39 -0.6 °C -5.3 °C 1027.4 hPa ENE 2.3 km/h 4.8 km/h 70.5% 0.0 mm 0 W/m2
03:44 -0.6 °C -5.3 °C 1027.4 hPa ENE 2.8 km/h 3.7 km/h 70% 0.0 mm 0 W/m2
03:49 -0.7 °C -5.4 °C 1027.3 hPa ENE 3.6 km/h 5.6 km/h 70.5% 0.0 mm 0 W/m2
03:54 -0.7 °C -5.3 °C 1027.3 hPa ENE 2.9 km/h 5.6 km/h 71% 0.0 mm 0 W/m2
03:59 -0.7 °C -5.3 °C 1027.3 hPa ENE 1.8 km/h 4.8 km/h 71.3% 0.0 mm 0 W/m2
04:04 -0.7 °C -5.2 °C 1027.3 hPa ENE 2.2 km/h 3.7 km/h 71.3% 0.0 mm 0 W/m2
04:09 -0.6 °C -5.2 °C 1027.3 hPa ENE 2.9 km/h 5.6 km/h 71% 0.0 mm 0 W/m2
04:14 -0.6 °C -5.2 °C 1027.3 hPa NE 2.9 km/h 5.6 km/h 71% 0.0 mm 0 W/m2
04:19 -0.6 °C -5.2 °C 1027.3 hPa NE 2.8 km/h 5.6 km/h 71.4% 0.0 mm 0 W/m2
04:24 -0.5 °C -5.2 °C 1027.3 hPa NE 2.3 km/h 4.8 km/h 70.8% 0.0 mm 0 W/m2
04:29 -0.6 °C -5.3 °C 1027.3 hPa NE 2.7 km/h 5.6 km/h 70.5% 0.0 mm 0 W/m2
04:34 -0.8 °C -5.2 °C 1027.2 hPa ENE 2.6 km/h 5.6 km/h 72.6% 0.0 mm 0 W/m2
04:39 -1 °C -5 °C 1027.2 hPa ENE 3.4 km/h 5.6 km/h 74% 0.0 mm 0 W/m2
04:44 -1 °C -5.1 °C 1027.2 hPa ENE 3.4 km/h 5.6 km/h 73.4% 0.0 mm 0 W/m2
04:49 -1.1 °C -5.2 °C 1027.1 hPa ENE 2.6 km/h 5.6 km/h 73.6% 0.0 mm 0 W/m2
04:54 -1.3 °C -5.3 °C 1027.2 hPa ENE 2.8 km/h 5.6 km/h 74.2% 0.0 mm 0 W/m2
04:59 -1.3 °C -5.2 °C 1027.1 hPa ENE 2.8 km/h 5.6 km/h 74.5% 0.0 mm 0 W/m2
05:04 -1.2 °C -5.2 °C 1027.1 hPa ENE 1.8 km/h 4.8 km/h 74% 0.0 mm 0 W/m2
05:09 -1.2 °C -5.3 °C 1027.1 hPa ENE 1.4 km/h 3.7 km/h 74.1% 0.0 mm 0 W/m2
05:14 -1.3 °C -5.2 °C 1027.1 hPa ENE 3.2 km/h 5.6 km/h 75% 0.0 mm 0 W/m2
05:19 -1.3 °C -5.1 °C 1027.1 hPa NE 2.8 km/h 5.6 km/h 75% 0.0 mm 0 W/m2
05:24 -1.3 °C -5.2 °C 1027.1 hPa NE 1.2 km/h 4.8 km/h 75.1% 0.0 mm 0 W/m2
05:29 -1.5 °C -5.2 °C 1027.1 hPa NE 2 km/h 3.7 km/h 76% 0.0 mm 0 W/m2
05:34 -1.5 °C -5.1 °C 1027.1 hPa NE 1.3 km/h 3.7 km/h 76.7% 0.0 mm 0 W/m2
05:39 -1.5 °C -5 °C 1027.1 hPa NE 1 km/h 3.7 km/h 77% 0.0 mm 0 W/m2
05:44 -1.5 °C -5 °C 1027.1 hPa ENE 1.5 km/h 3.7 km/h 77% 0.0 mm 0 W/m2
05:49 -1.7 °C -5.2 °C 1027.1 hPa ENE 1.7 km/h 3.7 km/h 77% 0.0 mm 0 W/m2
05:54 -1.7 °C -5.2 °C 1027.1 hPa ENE 0.5 km/h 3.2 km/h 77% 0.0 mm 0 W/m2
05:59 -1.7 °C -5.2 °C 1027.2 hPa ENE 0.4 km/h 1.9 km/h 76.5% 0.0 mm 0 W/m2
06:04 -1.7 °C -5.3 °C 1027.3 hPa ENE 0.1 km/h 1.9 km/h 76.5% 0.0 mm 0 W/m2
06:09 -1.8 °C -5.3 °C 1027.2 hPa ENE 1.2 km/h 3.7 km/h 77% 0.0 mm 0 W/m2
06:14 -1.7 °C -5.3 °C 1027.2 hPa ENE 1.3 km/h 3.7 km/h 76.5% 0.0 mm 0 W/m2
06:19 -1.4 °C -5.2 °C 1027.2 hPa ENE 1 km/h 3.7 km/h 75.4% 0.0 mm 0 W/m2
06:24 -1.4 °C -5.2 °C 1027.2 hPa NE 2.1 km/h 5.6 km/h 75% 0.0 mm 0 W/m2
06:29 -1.5 °C -5.3 °C 1027.2 hPa NE 2.2 km/h 5.6 km/h 75% 0.0 mm 0 W/m2
06:34 -1.6 °C -5.4 °C 1027.3 hPa NE 2.8 km/h 4.8 km/h 75.5% 0.0 mm 0 W/m2
06:39 -1.6 °C -5.4 °C 1027.3 hPa NE 1.2 km/h 3.7 km/h 75.1% 0.0 mm 7 W/m2
06:44 -1.8 °C -5.5 °C 1027.4 hPa NNE 1 km/h 3.7 km/h 75.7% 0.0 mm 9 W/m2
06:49 -1.9 °C -5.4 °C 1027.4 hPa NE 1.8 km/h 3.7 km/h 76.8% 0.0 mm 12 W/m2
06:54 -1.9 °C -5.4 °C 1027.5 hPa NE 2.4 km/h 5.6 km/h 76.6% 0.0 mm 14 W/m2
06:59 -1.6 °C -5.4 °C 1027.5 hPa NE 3.8 km/h 5.6 km/h 75.3% 0.0 mm 16 W/m2
07:04 -0.9 °C -5.4 °C 1027.5 hPa NE 3.5 km/h 5.6 km/h 71.7% 0.0 mm 21 W/m2
07:09 -0.7 °C -5.3 °C 1027.6 hPa NE 4.3 km/h 6.4 km/h 70.9% 0.0 mm 32 W/m2
07:14 -0.4 °C -5.2 °C 1027.6 hPa NE 4.4 km/h 6.4 km/h 70% 0.0 mm 40 W/m2
07:19 -0.4 °C -5.1 °C 1027.6 hPa NE 1.6 km/h 6.4 km/h 70.8% 0.0 mm 51 W/m2
07:24 -0.9 °C -5 °C 1027.7 hPa NE 1.2 km/h 4.8 km/h 73.3% 0.0 mm 62 W/m2
07:29 -0.6 °C -4.7 °C 1027.7 hPa NE 1.6 km/h 3.7 km/h 74% 0.0 mm 76 W/m2
07:34 -0.5 °C -4.4 °C 1027.6 hPa ENE 0.4 km/h 3.2 km/h 75.1% 0.0 mm 86 W/m2
07:39 -0.3 °C -4.6 °C 1027.7 hPa Calm   1.9 km/h 72.5% 0.0 mm 102 W/m2
07:44 0.1 °C -4.6 °C 1027.7 hPa Calm   1.6 km/h 70.5% 0.0 mm 118 W/m2
07:49 0.1 °C -4.1 °C 1027.7 hPa Calm     73% 0.0 mm 135 W/m2
07:54 0.3 °C -4.2 °C 1027.8 hPa Calm     72.1% 0.0 mm 153 W/m2
07:59 0.8 °C -4.3 °C 1027.8 hPa Calm     68.8% 0.0 mm 169 W/m2
08:04 1.2 °C -4.1 °C 1027.9 hPa Calm     68% 0.0 mm 185 W/m2
08:09 1.4 °C -3.8 °C 1028.0 hPa East 0.9 km/h 5.6 km/h 68.2% 0.0 mm 197 W/m2
08:14 1.5 °C -3.7 °C 1028.0 hPa East 2.4 km/h 5.6 km/h 68% 0.0 mm 211 W/m2
08:19 1.8 °C -3.6 °C 1028.0 hPa East 1.7 km/h 4.8 km/h 67.7% 0.0 mm 223 W/m2
08:24 2 °C -3.5 °C 1028.1 hPa East 1 km/h 3.7 km/h 67% 0.0 mm 237 W/m2
08:29 2.3 °C -3.1 °C 1028.1 hPa East 1.8 km/h 3.7 km/h 67.4% 0.0 mm 251 W/m2
08:34 2.7 °C -2.7 °C 1028.1 hPa East 2.4 km/h 5.6 km/h 67.9% 0.0 mm 265 W/m2
08:39 3 °C -2.5 °C 1028.1 hPa East 3.6 km/h 8 km/h 67.1% 0.0 mm 278 W/m2
08:44 3.5 °C -2.5 °C 1028.2 hPa East 5.2 km/h 8 km/h 65% 0.0 mm 290 W/m2
08:49 3.9 °C -2.5 °C 1028.2 hPa ENE 4 km/h 8 km/h 63.2% 0.0 mm 301 W/m2
08:54 4.1 °C -2.3 °C 1028.2 hPa NE 2.4 km/h 8 km/h 62.9% 0.0 mm 316 W/m2
08:59 4.5 °C -2.1 °C 1028.2 hPa ENE 4.6 km/h 8 km/h 62.5% 0.0 mm 330 W/m2
09:04 4.8 °C -2.1 °C 1028.2 hPa ENE 4.3 km/h 8 km/h 61% 0.0 mm 345 W/m2
09:09 4.8 °C -1.9 °C 1028.2 hPa East 2.9 km/h 5.6 km/h 61.9% 0.0 mm 357 W/m2
09:14 5 °C -1.9 °C 1028.2 hPa ENE 2.9 km/h 6.4 km/h 61% 0.0 mm 371 W/m2
09:19 5.5 °C -1.4 °C 1028.2 hPa ENE 5.8 km/h 11.3 km/h 61.1% 0.0 mm 380 W/m2
09:24 5.7 °C -1.4 °C 1028.2 hPa ENE 5.9 km/h 11.3 km/h 60% 0.0 mm 394 W/m2
09:29 6 °C -0.9 °C 1028.2 hPa ENE 5.1 km/h 11.3 km/h 61.2% 0.0 mm 406 W/m2
09:34 6.4 °C -0.7 °C 1028.2 hPa East 4.8 km/h 12.9 km/h 60.9% 0.0 mm 420 W/m2
09:39 6.5 °C -0.6 °C 1028.2 hPa East 8.2 km/h 13 km/h 60.3% 0.0 mm 434 W/m2
09:44 6.6 °C -0.6 °C 1028.2 hPa East 5.5 km/h 12.9 km/h 60.5% 0.0 mm 445 W/m2
09:49 6.8 °C -0.4 °C 1028.2 hPa East 5.3 km/h 11.3 km/h 60.4% 0.0 mm 454 W/m2
09:54 6.8 °C -0.2 °C 1028.2 hPa ESE 6 km/h 13 km/h 60.9% 0.0 mm 464 W/m2
09:59 7.1 °C 0 °C 1028.2 hPa East 5.8 km/h 13 km/h 60.9% 0.0 mm 476 W/m2
10:04 7.5 °C 0.1 °C 1028.3 hPa ESE 8.8 km/h 14.8 km/h 59.6% 0.0 mm 489 W/m2
10:09 7.3 °C -0.3 °C 1028.3 hPa ESE 7.8 km/h 14.8 km/h 58.5% 0.0 mm 497 W/m2
10:14 7.3 °C -0.3 °C 1028.2 hPa East 8 km/h 16.7 km/h 58.6% 0.0 mm 508 W/m2
10:19 7.6 °C -0.2 °C 1028.2 hPa East 9 km/h 16.7 km/h 58% 0.0 mm 517 W/m2
10:24 7.6 °C -0.1 °C 1028.2 hPa East 7.1 km/h 16.1 km/h 58.3% 0.0 mm 524 W/m2
10:29 8 °C 0.3 °C 1028.1 hPa ESE 5.1 km/h 14.8 km/h 58.2% 0.0 mm 536 W/m2
10:34 8.1 °C 0.1 °C 1028.1 hPa ESE 9.4 km/h 16.7 km/h 57% 0.0 mm 541 W/m2
10:39 7.9 °C -0.2 °C 1028.1 hPa ESE 6.7 km/h 16.1 km/h 56.5% 0.0 mm 554 W/m2
10:44 8 °C 0.1 °C 1028.0 hPa ESE 3.7 km/h 11.3 km/h 57.5% 0.0 mm 564 W/m2
10:49 8.4 °C 0.1 °C 1028.1 hPa ESE 6.1 km/h 14.5 km/h 55.9% 0.0 mm 568 W/m2
10:54 8.3 °C 0.1 °C 1028.0 hPa ESE 6.8 km/h 18.5 km/h 56.1% 0.0 mm 575 W/m2
10:59 8.7 °C 0.3 °C 1027.9 hPa East 8.5 km/h 19.3 km/h 55.8% 0.0 mm 578 W/m2
11:04 8.6 °C 0.2 °C 1027.9 hPa East 8.8 km/h 16.7 km/h 55.5% 0.0 mm 585 W/m2
11:09 8.8 °C 0.4 °C 1027.8 hPa East 9.6 km/h 16.1 km/h 55.4% 0.0 mm 596 W/m2
11:14 8.8 °C 0.1 °C 1027.8 hPa East 9 km/h 16.7 km/h 54.5% 0.0 mm 599 W/m2
11:19 8.5 °C -0.1 °C 1027.8 hPa ESE 5.7 km/h 16.1 km/h 54.8% 0.0 mm 610 W/m2
11:24 8.6 °C 0.2 °C 1027.8 hPa East 5 km/h 14.5 km/h 55.5% 0.0 mm 621 W/m2
11:29 8.8 °C 0 °C 1027.7 hPa East 9.1 km/h 14.8 km/h 54% 0.0 mm 628 W/m2
11:34 8.7 °C -0.1 °C 1027.7 hPa ESE 5.1 km/h 14.8 km/h 54.1% 0.0 mm 628 W/m2
11:39 9 °C -0.1 °C 1027.7 hPa ESE 11.6 km/h 20.9 km/h 52.7% 0.0 mm 628 W/m2
11:44 8.8 °C -0.5 °C 1027.6 hPa ESE 5.4 km/h 14.8 km/h 52.1% 0.0 mm 633 W/m2
11:49 9.1 °C -0.7 °C 1027.6 hPa ESE 4.3 km/h 14.5 km/h 50.4% 0.0 mm 638 W/m2
11:54 9.5 °C -0.4 °C 1027.6 hPa ESE 8.2 km/h 14.8 km/h 50% 0.0 mm 642 W/m2
11:59 9.3 °C -0.3 °C 1027.6 hPa ESE 6.8 km/h 13 km/h 50.9% 0.0 mm 645 W/m2
12:04 9.6 °C -0.7 °C 1027.6 hPa ESE 11 km/h 20.9 km/h 48.9% 0.0 mm 649 W/m2
12:09 9.5 °C -0.5 °C 1027.5 hPa East 9.1 km/h 20.9 km/h 49.7% 0.0 mm 654 W/m2
12:14 9.5 °C -0.4 °C 1027.5 hPa East 6.1 km/h 18.5 km/h 50% 0.0 mm 652 W/m2
12:19 10 °C 0.1 °C 1027.5 hPa NNE 4.1 km/h 19.3 km/h 50.3% 0.0 mm 654 W/m2
12:24 10.2 °C 0 °C 1027.4 hPa NNE 5.1 km/h 11.3 km/h 49.4% 0.0 mm 656 W/m2
12:29 10.1 °C -0.3 °C 1027.3 hPa ESE 4.4 km/h 11.3 km/h 48.5% 0.0 mm 656 W/m2
12:34 10.1 °C -0.3 °C 1027.2 hPa SE 7.3 km/h 16.7 km/h 48.4% 0.0 mm 656 W/m2
12:39 10.1 °C -0.4 °C 1027.2 hPa ESE 9.2 km/h 18.5 km/h 48.2% 0.0 mm 659 W/m2
12:44 10 °C -0.5 °C 1027.1 hPa SE 10.1 km/h 19.3 km/h 48% 0.0 mm 657 W/m2
12:49 9.7 °C -0.6 °C 1027.1 hPa ENE 3.7 km/h 16.1 km/h 48.5% 0.0 mm 654 W/m2
12:54 10 °C -0.1 °C 1027.0 hPa ESE 5.8 km/h 22.5 km/h 49.4% 0.0 mm 647 W/m2
12:59 10.2 °C -0.3 °C 1026.9 hPa East 11.5 km/h 22.5 km/h 48.3% 0.0 mm 650 W/m2
13:04 10.3 °C 0.2 °C 1026.8 hPa ENE 10 km/h 20.9 km/h 49.3% 0.0 mm 649 W/m2
13:09 10.4 °C 0.2 °C 1026.8 hPa East 11.4 km/h 20.9 km/h 49.4% 0.0 mm 647 W/m2
13:14 10.5 °C 0.3 °C 1026.8 hPa ENE 11.2 km/h 20.9 km/h 49.4% 0.0 mm 640 W/m2
13:19 10.6 °C 0.4 °C 1026.8 hPa East 14.3 km/h 27.8 km/h 49.3% 0.0 mm 631 W/m2
13:24 10.5 °C 0.5 °C 1026.7 hPa ESE 8.3 km/h 27.4 km/h 50.3% 0.0 mm 636 W/m2
13:29 10.5 °C 0.3 °C 1026.6 hPa ESE 13 km/h 18.5 km/h 49.2% 0.0 mm 638 W/m2
13:34 10.4 °C 0.1 °C 1026.6 hPa ESE 12.3 km/h 19.3 km/h 48.9% 0.0 mm 629 W/m2
13:39 10.3 °C 0.3 °C 1026.6 hPa East 9.9 km/h 16.7 km/h 50% 0.0 mm 622 W/m2
13:44 10.8 °C 0.6 °C 1026.5 hPa ENE 10.8 km/h 16.7 km/h 49.5% 0.0 mm 622 W/m2
13:49 10.8 °C 0.4 °C 1026.5 hPa ESE 10.1 km/h 16.7 km/h 48.7% 0.0 mm 617 W/m2
13:54 10.9 °C 0.6 °C 1026.5 hPa East 9.4 km/h 18.5 km/h 49% 0.0 mm 612 W/m2
13:59 11 °C 0.8 °C 1026.3 hPa East 6.3 km/h 19.3 km/h 49.5% 0.0 mm 603 W/m2
14:04 11.2 °C 0.5 °C 1026.3 hPa East 11.7 km/h 20.9 km/h 47.8% 0.0 mm 594 W/m2
14:09 10.8 °C 0.3 °C 1026.3 hPa East 10.9 km/h 20.9 km/h 48.3% 0.0 mm 591 W/m2
14:14 10.7 °C 0.4 °C 1026.3 hPa ESE 12.7 km/h 22.2 km/h 49.1% 0.0 mm 589 W/m2
14:19 10.6 °C 0.2 °C 1026.2 hPa ESE 11.2 km/h 22.5 km/h 48.5% 0.0 mm 580 W/m2
14:24 10.7 °C 0.4 °C 1026.1 hPa East 10.6 km/h 20.9 km/h 48.9% 0.0 mm 568 W/m2
14:29 10.8 °C 0.7 °C 1026.2 hPa ESE 14.3 km/h 22.5 km/h 49.5% 0.0 mm 557 W/m2
14:34 10.7 °C 0.4 °C 1026.2 hPa East 11.1 km/h 22.5 km/h 49% 0.0 mm 557 W/m2
14:39 10.9 °C 0.7 °C 1026.2 hPa East 10.5 km/h 22.5 km/h 49.4% 0.0 mm 555 W/m2
14:44 11.1 °C 0.7 °C 1026.1 hPa ESE 13.7 km/h 22.5 km/h 48.8% 0.0 mm 538 W/m2
14:49 10.9 °C 0.8 °C 1026.1 hPa SE 5.9 km/h 22.5 km/h 49.9% 0.0 mm 526 W/m2
14:54 10.9 °C 0.7 °C 1026.1 hPa East 6.1 km/h 20.9 km/h 49.3% 0.0 mm 540 W/m2
14:59 11.1 °C 0.6 °C 1026.1 hPa ENE 12.5 km/h 19.3 km/h 48.5% 0.0 mm 536 W/m2
15:04 11.4 °C 0.9 °C 1026.1 hPa East 10.7 km/h 20.9 km/h 48.4% 0.0 mm 519 W/m2
15:09 11.2 °C 0.8 °C 1026.1 hPa ESE 12.2 km/h 20.9 km/h 48.5% 0.0 mm 504 W/m2
15:14 11.1 °C 0.7 °C 1026.1 hPa ESE 8.9 km/h 20.9 km/h 49% 0.0 mm 482 W/m2
15:19 11 °C 0.9 °C 1026.0 hPa East 8.8 km/h 19.3 km/h 49.7% 0.0 mm 473 W/m2
15:24 11.2 °C 1.1 °C 1025.9 hPa ESE 8.6 km/h 19.3 km/h 49.6% 0.0 mm 450 W/m2
15:29 11.5 °C 1.2 °C 1025.9 hPa SE 7.2 km/h 16.1 km/h 49% 0.0 mm 434 W/m2
15:34 11.5 °C 1.1 °C 1025.9 hPa SSE 4.4 km/h 12.9 km/h 48.8% 0.0 mm 425 W/m2
15:39 11.6 °C 1.2 °C 1025.9 hPa ENE 10.2 km/h 20.9 km/h 48.7% 0.0 mm 417 W/m2
15:44 11.5 °C 1.2 °C 1025.8 hPa ENE 7.5 km/h 20.9 km/h 49.2% 0.0 mm 396 W/m2
15:49 11.5 °C 1 °C 1025.8 hPa ESE 7.5 km/h 16.7 km/h 48.5% 0.0 mm 387 W/m2
15:54 11.1 °C 0.8 °C 1025.7 hPa ESE 8.4 km/h 16.7 km/h 49.1% 0.0 mm 376 W/m2
15:59 11.1 °C 0.9 °C 1025.7 hPa ESE 10 km/h 16.7 km/h 49.7% 0.0 mm 364 W/m2
16:04 11.2 °C 1.2 °C 1025.8 hPa ESE 13.8 km/h 22.5 km/h 50% 0.0 mm 346 W/m2
16:09 11.1 °C 0.9 °C 1025.8 hPa ESE 10.1 km/h 22.5 km/h 49.5% 0.0 mm 332 W/m2
16:14 11.3 °C 1.3 °C 1025.9 hPa SE 7.4 km/h 20.9 km/h 50.3% 0.0 mm 323 W/m2
16:19 11.3 °C 1.2 °C 1025.9 hPa SSE 4.4 km/h 12.9 km/h 49.8% 0.0 mm 308 W/m2
16:24 11.3 °C 1.1 °C 1025.9 hPa SE 8.3 km/h 16.1 km/h 49.3% 0.0 mm 294 W/m2
16:29 11.1 °C 0.8 °C 1025.8 hPa ESE 10.6 km/h 17.7 km/h 49% 0.0 mm 276 W/m2
16:34 11 °C 0.5 °C 1025.8 hPa ESE 10.8 km/h 19.3 km/h 48.6% 0.0 mm 264 W/m2
16:39 10.9 °C 0.4 °C 1025.8 hPa ESE 5.6 km/h 19.3 km/h 48.5% 0.0 mm 250 W/m2
16:44 11.1 °C 0.9 °C 1025.8 hPa ESE 6.8 km/h 13 km/h 49.7% 0.0 mm 230 W/m2
16:49 11.1 °C 1 °C 1025.9 hPa ESE 10.3 km/h 18.5 km/h 50% 0.0 mm 220 W/m2
16:54 10.9 °C 0.9 °C 1025.8 hPa ESE 11.3 km/h 19.3 km/h 50% 0.0 mm 202 W/m2
16:59 10.8 °C 0.9 °C 1025.8 hPa ESE 12 km/h 19.3 km/h 50.1% 0.0 mm 186 W/m2
17:04 10.9 °C 0.9 °C 1025.9 hPa East 9.2 km/h 16.7 km/h 50% 0.0 mm 172 W/m2
17:09 10.8 °C 0.8 °C 1025.8 hPa ESE 8 km/h 17.7 km/h 49.9% 0.0 mm 156 W/m2
17:14 10.7 °C 0.9 °C 1025.8 hPa ESE 10.2 km/h 19.3 km/h 50.6% 0.0 mm 139 W/m2
17:19 10.7 °C 1 °C 1025.8 hPa ESE 8.7 km/h 19.3 km/h 51% 0.0 mm 123 W/m2
17:24 10.6 °C 1 °C 1025.7 hPa ESE 9.6 km/h 19.3 km/h 51.5% 0.0 mm 111 W/m2
17:29 10.5 °C 1 °C 1025.8 hPa ESE 11.8 km/h 19.3 km/h 51.8% 0.0 mm 95 W/m2
17:34 10.4 °C 1.1 °C 1025.8 hPa ESE 10.3 km/h 19.3 km/h 52.6% 0.0 mm 81 W/m2
17:39 10.2 °C 1.1 °C 1025.8 hPa ESE 10.7 km/h 19.3 km/h 53% 0.0 mm 67 W/m2
17:44 10.1 °C 1 °C 1025.9 hPa ESE 9.3 km/h 14.8 km/h 53% 0.0 mm 51 W/m2
17:49 10 °C 1 °C 1026.1 hPa ESE 6.8 km/h 14.5 km/h 53.6% 0.0 mm 40 W/m2
17:54 9.8 °C 1 °C 1026.1 hPa ESE 5.1 km/h 11.3 km/h 54.2% 0.0 mm 21 W/m2
17:59 9.7 °C 1 °C 1026.2 hPa ESE 7.1 km/h 13 km/h 54.8% 0.0 mm 16 W/m2
18:04 9.5 °C 0.9 °C 1026.3 hPa SE 5.3 km/h 12.9 km/h 55.2% 0.0 mm 11 W/m2
18:09 9.3 °C 0.9 °C 1026.3 hPa SE 5.2 km/h 9.7 km/h 56% 0.0 mm 7 W/m2
18:14 9.1 °C 0.9 °C 1026.3 hPa ESE 4.9 km/h 8 km/h 56.6% 0.0 mm 5 W/m2
18:19 8.9 °C 0.9 °C 1026.5 hPa ESE 4.1 km/h 8 km/h 57.2% 0.0 mm 0 W/m2
18:24 8.8 °C 0.8 °C 1026.5 hPa ESE 3.8 km/h 8 km/h 57.3% 0.0 mm 0 W/m2
18:29 8.7 °C 0.8 °C 1026.5 hPa ESE 3.1 km/h 6.4 km/h 58% 0.0 mm 0 W/m2
18:34 8.5 °C 0.9 °C 1026.6 hPa ESE 2.6 km/h 5.6 km/h 58.6% 0.0 mm 0 W/m2
18:39 8.3 °C 0.8 °C 1026.8 hPa ESE 1.7 km/h 4.8 km/h 59.5% 0.0 mm 0 W/m2
18:44 8.1 °C 0.8 °C 1026.8 hPa East 2.7 km/h 5.6 km/h 60% 0.0 mm 0 W/m2
18:49 8.1 °C 0.8 °C 1026.8 hPa East 3.6 km/h 5.6 km/h 60% 0.0 mm 0 W/m2
18:54 8.2 °C 1 °C 1026.8 hPa East 3.7 km/h 5.6 km/h 60.8% 0.0 mm 0 W/m2
18:59 8 °C 0.9 °C 1026.8 hPa East 4.2 km/h 6.4 km/h 61% 0.0 mm 0 W/m2
19:04 7.9 °C 0.9 °C 1026.8 hPa ENE 4.2 km/h 8 km/h 61.1% 0.0 mm 0 W/m2
19:09 7.7 °C 0.9 °C 1026.9 hPa ENE 3.8 km/h 8 km/h 61.9% 0.0 mm 0 W/m2
19:14 7.4 °C 0.8 °C 1027.0 hPa ENE 2.1 km/h 4.8 km/h 62.9% 0.0 mm 0 W/m2
19:19 7.1 °C 0.8 °C 1027.0 hPa ENE 2 km/h 3.7 km/h 64.5% 0.0 mm 0 W/m2
19:24 7 °C 0.9 °C 1027.0 hPa East 2.5 km/h 3.7 km/h 65% 0.0 mm 0 W/m2
19:29 7.1 °C 0.9 °C 1027.1 hPa East 2 km/h 5.6 km/h 65% 0.0 mm 0 W/m2
19:34 7.3 °C 1.1 °C 1027.1 hPa ESE 3.3 km/h 8 km/h 65% 0.0 mm 0 W/m2
19:39 7.6 °C 1.4 °C 1027.1 hPa ESE 5.1 km/h 8 km/h 64.7% 0.0 mm 0 W/m2
19:44 7.8 °C 1.6 °C 1027.3 hPa East 4.3 km/h 8 km/h 64.9% 0.0 mm 0 W/m2
19:49 7.8 °C 1.6 °C 1027.3 hPa ESE 3.6 km/h 6.4 km/h 65% 0.0 mm 0 W/m2
19:54 7.8 °C 1.7 °C 1027.3 hPa ESE 2.7 km/h 5.6 km/h 65.3% 0.0 mm 0 W/m2
19:59 7.7 °C 1.8 °C 1027.4 hPa ESE 2.6 km/h 4.8 km/h 66% 0.0 mm 0 W/m2
20:04 7.6 °C 1.7 °C 1027.4 hPa ESE 4.2 km/h 8 km/h 66% 0.0 mm 0 W/m2
20:09 7.7 °C 1.7 °C 1027.4 hPa ESE 6.9 km/h 13 km/h 66% 0.0 mm 0 W/m2
20:14 7.8 °C 1.7 °C 1027.5 hPa ESE 10.1 km/h 16.7 km/h 65.6% 0.0 mm 0 W/m2
20:19 7.8 °C 1.6 °C 1027.6 hPa ESE 7.1 km/h 16.1 km/h 65.1% 0.0 mm 0 W/m2
20:24 7.8 °C 1.5 °C 1027.6 hPa ESE 8.5 km/h 14.8 km/h 64.2% 0.0 mm 0 W/m2
20:29 7.9 °C 1.4 °C 1027.7 hPa ESE 6.1 km/h 14.8 km/h 63.5% 0.0 mm 0 W/m2
20:34 7.9 °C 1.3 °C 1027.9 hPa SE 6.3 km/h 11.3 km/h 63.1% 0.0 mm 0 W/m2
20:39 7.8 °C 1.5 °C 1028.0 hPa ESE 7.8 km/h 13 km/h 64% 0.0 mm 0 W/m2
20:44 7.8 °C 1.4 °C 1028.0 hPa SE 7 km/h 12.9 km/h 64% 0.0 mm 0 W/m2
20:49 7.7 °C 1.3 °C 1028.0 hPa ESE 9.6 km/h 14.8 km/h 64.2% 0.0 mm 0 W/m2
20:54 7.6 °C 1.5 °C 1028.1 hPa ESE 7.8 km/h 14.5 km/h 65% 0.0 mm 0 W/m2
20:59 7.6 °C 1.4 °C 1028.2 hPa ESE 7.9 km/h 16.7 km/h 65% 0.0 mm 0 W/m2
21:04 7.6 °C 1.4 °C 1028.3 hPa ESE 5.5 km/h 16.1 km/h 65.2% 0.0 mm 0 W/m2
21:09 7.5 °C 1.4 °C 1028.4 hPa ESE 5.8 km/h 11.3 km/h 65.2% 0.0 mm 0 W/m2
21:14 7.5 °C 1.3 °C 1028.4 hPa ESE 6.7 km/h 13 km/h 65% 0.0 mm 0 W/m2
21:19 7.5 °C 1.3 °C 1028.4 hPa ESE 6 km/h 13 km/h 65% 0.0 mm 0 W/m2
21:24 7.4 °C 1.3 °C 1028.4 hPa ESE 4.8 km/h 11.3 km/h 65% 0.0 mm 0 W/m2
21:29 7.4 °C 1.2 °C 1028.5 hPa ESE 5.3 km/h 8 km/h 65% 0.0 mm 0 W/m2
21:34 7.4 °C 1.2 °C 1028.5 hPa East 5.5 km/h 9.7 km/h 65% 0.0 mm 0 W/m2
21:39 7.3 °C 1.2 °C 1028.5 hPa ESE 6.9 km/h 12.9 km/h 65% 0.0 mm 0 W/m2
21:44 7.3 °C 1.2 °C 1028.7 hPa ESE 6.6 km/h 13 km/h 65% 0.0 mm 0 W/m2
21:49 7.3 °C 1.2 °C 1028.7 hPa ESE 5.1 km/h 12.9 km/h 65.2% 0.0 mm 0 W/m2
21:54 7.3 °C 1.3 °C 1028.7 hPa ESE 5 km/h 9.7 km/h 65.8% 0.0 mm 0 W/m2
21:59 7.3 °C 1.4 °C 1028.7 hPa East 3.9 km/h 9.7 km/h 66.2% 0.0 mm 0 W/m2
22:04 7.2 °C 1.5 °C 1028.7 hPa East 3.3 km/h 8 km/h 67% 0.0 mm 0 W/m2
22:09 7.2 °C 1.5 °C 1028.7 hPa East 5.8 km/h 11.3 km/h 67.4% 0.0 mm 0 W/m2
22:14 7.2 °C 1.6 °C 1028.7 hPa East 5.1 km/h 11.3 km/h 67.8% 0.0 mm 0 W/m2
22:19 7.1 °C 1.6 °C 1028.7 hPa East 4.7 km/h 9.7 km/h 68% 0.0 mm 0 W/m2
22:24 7.1 °C 1.6 °C 1028.7 hPa East 4.6 km/h 9.7 km/h 68% 0.0 mm 0 W/m2
22:29 7.1 °C 1.6 °C 1028.7 hPa East 5.1 km/h 11.3 km/h 68% 0.0 mm 0 W/m2
22:34 7.1 °C 1.6 °C 1028.7 hPa ENE 5.3 km/h 11.3 km/h 68% 0.0 mm 0 W/m2
22:39 7.1 °C 1.6 °C 1028.8 hPa ENE 4.9 km/h 11.3 km/h 68% 0.0 mm 0 W/m2
22:44 7 °C 1.7 °C 1028.9 hPa NE 4.4 km/h 11.3 km/h 68.7% 0.0 mm 0 W/m2
22:49 7 °C 1.7 °C 1028.9 hPa ENE 3.6 km/h 8 km/h 69% 0.0 mm 0 W/m2
22:54 6.9 °C 1.8 °C 1028.9 hPa ENE 5.1 km/h 8 km/h 69.8% 0.0 mm 0 W/m2
22:59 6.8 °C 1.8 °C 1029.0 hPa ENE 5.2 km/h 8 km/h 70.3% 0.0 mm 0 W/m2
23:04 6.7 °C 1.8 °C 1029.0 hPa ENE 5.2 km/h 8 km/h 71% 0.0 mm 0 W/m2
23:09 6.7 °C 1.8 °C 1029.0 hPa NE 4.8 km/h 8 km/h 71% 0.0 mm 0 W/m2
23:14 6.6 °C 1.9 °C 1029.1 hPa NE 4.8 km/h 8 km/h 71.8% 0.0 mm 0 W/m2
23:19 6.5 °C 1.9 °C 1029.2 hPa NE 4.2 km/h 8 km/h 72% 0.0 mm 0 W/m2
23:24 6.5 °C 1.8 °C 1029.2 hPa NE 3.6 km/h 8 km/h 72% 0.0 mm 0 W/m2
23:29 6.4 °C 1.7 °C 1029.2 hPa NE 5.5 km/h 11.3 km/h 72% 0.0 mm 0 W/m2
23:34 6.3 °C 1.7 °C 1029.1 hPa NE 7.8 km/h 11.1 km/h 72% 0.0 mm 0 W/m2
23:39 6.3 °C 1.6 °C 1029.3 hPa NE 7.4 km/h 11.3 km/h 72% 0.0 mm 0 W/m2
23:44 6.3 °C 1.6 °C 1029.3 hPa NE 7.7 km/h 11.3 km/h 72.2% 0.0 mm 0 W/m2
23:49 6.3 °C 1.7 °C 1029.4 hPa NE 5.2 km/h 11.3 km/h 72.9% 0.0 mm 0 W/m2
23:54 6.2 °C 1.7 °C 1029.5 hPa NE 5.4 km/h 9.7 km/h 73% 0.0 mm 0 W/m2
23:59 6.2 °C 1.7 °C 1029.5 hPa NE 5.2 km/h 8 km/h 73% 0.0 mm 0 W/m2
Stazione Meteorologica MeteoMincio Rivalta s/M (MN)
Con i complimenti di Weather Underground - 4 mb


METEO PILLOLE
Il più lungo periodo di temperature stabili
Garapan, Isola di Sarapan - Marianne settentrionali
Dal 1927 al 1935 la temperatura non è mai salita sopra 31°C e mai scesa sotto i 19,5°C.

Do NOT follow this link or you will be banned from the site!